Time;durP1;ratioP1;P1;durP2;ratioP2;P2;SDS_P1;SDS_P2;PMS_P1;PMS_P2;Temp;Humidity;BMP_temperature;BMP_pressure;BME280_temperature;BME280_humidity;BME280_pressure;Samples;Min_cycle;Max_cycle;Signal;HPM_P1;HPM_P2
2023/10/23 00:01:06;;;;;;;0.68;0.55;;;13.00;99.90;;;;;;5017906;28;20038;-64
2023/10/23 00:03:32;;;;;;;1.52;0.70;;;13.00;99.90;;;;;;5036020;28;20037;-65
2023/10/23 00:05:57;;;;;;;0.50;0.50;;;13.00;99.90;;;;;;5018301;28;20149;-65
2023/10/23 00:08:23;;;;;;;2.58;0.90;;;12.90;99.90;;;;;;5021120;28;20033;-64
2023/10/23 00:10:49;;;;;;;0.88;0.60;;;12.90;99.90;;;;;;5019302;28;20059;-64
2023/10/23 00:13:15;;;;;;;2.03;0.50;;;12.90;99.90;;;;;;5019689;28;20091;-64
2023/10/23 00:15:42;;;;;;;0.95;0.65;;;12.90;99.90;;;;;;5020326;28;20083;-64
2023/10/23 00:18:08;;;;;;;1.55;0.57;;;12.90;99.90;;;;;;5018797;28;20048;-64
2023/10/23 00:20:33;;;;;;;1.45;0.55;;;12.90;99.90;;;;;;5021419;28;20041;-64
2023/10/23 00:22:59;;;;;;;5.72;0.80;;;12.90;99.90;;;;;;5021269;28;20034;-64
2023/10/23 00:25:25;;;;;;;0.52;0.50;;;12.90;99.90;;;;;;5021379;28;20075;-64
2023/10/23 00:27:51;;;;;;;0.73;0.43;;;12.80;99.90;;;;;;5018705;28;20047;-64
2023/10/23 00:30:16;;;;;;;1.55;0.60;;;12.80;99.90;;;;;;5020247;28;20120;-64
2023/10/23 00:32:42;;;;;;;3.55;0.70;;;12.80;99.90;;;;;;5033728;28;20037;-64
2023/10/23 00:35:08;;;;;;;1.23;0.60;;;12.80;99.90;;;;;;5020235;28;20038;-64
2023/10/23 00:37:34;;;;;;;1.38;0.90;;;12.70;99.90;;;;;;5034058;28;20033;-64
2023/10/23 00:40:00;;;;;;;1.33;0.60;;;12.70;99.90;;;;;;5019244;28;20452;-64
2023/10/23 00:42:26;;;;;;;2.38;0.70;;;12.70;99.90;;;;;;5018847;28;20025;-64
2023/10/23 00:44:52;;;;;;;0.82;0.60;;;12.60;99.90;;;;;;5022613;28;20025;-64
2023/10/23 00:47:21;;;;;;;0.98;0.57;;;12.60;99.90;;;;;;5018575;28;20026;-64
2023/10/23 00:49:46;;;;;;;0.65;0.63;;;12.50;99.90;;;;;;5022554;28;20049;-64
2023/10/23 00:52:12;;;;;;;0.52;0.50;;;12.50;99.90;;;;;;5016942;28;20474;-65
2023/10/23 00:54:39;;;;;;;0.68;0.50;;;12.50;99.90;;;;;;5022670;28;20033;-64
2023/10/23 00:57:05;;;;;;;1.27;0.63;;;12.40;99.90;;;;;;5015969;28;20683;-64
2023/10/23 00:59:31;;;;;;;2.10;0.70;;;12.50;99.90;;;;;;5021331;28;20025;-64
2023/10/23 01:01:57;;;;;;;1.10;0.40;;;12.40;99.90;;;;;;5016603;28;20390;-64
2023/10/23 01:04:24;;;;;;;2.67;0.80;;;12.40;99.90;;;;;;5022710;28;20044;-64
2023/10/23 01:06:50;;;;;;;2.33;0.60;;;12.40;99.90;;;;;;5016962;28;20029;-64
2023/10/23 01:09:17;;;;;;;1.55;0.40;;;12.40;99.90;;;;;;5021612;28;20048;-64
2023/10/23 01:11:43;;;;;;;1.73;0.65;;;12.40;99.90;;;;;;5015125;28;20108;-64
2023/10/23 01:14:09;;;;;;;1.98;0.60;;;12.40;99.90;;;;;;5016371;28;20040;-64
2023/10/23 01:16:35;;;;;;;0.55;0.52;;;12.30;99.90;;;;;;5019576;28;20022;-64
2023/10/23 01:19:02;;;;;;;2.70;0.70;;;12.30;99.90;;;;;;5015245;28;20547;-64
2023/10/23 01:21:28;;;;;;;0.98;0.70;;;12.30;99.90;;;;;;5018576;28;20034;-70
2023/10/23 01:23:58;;;;;;;0.68;0.50;;;12.30;99.90;;;;;;5016906;28;20642;-70
2023/10/23 01:26:24;;;;;;;0.90;0.65;;;12.20;99.90;;;;;;5020562;28;20029;-70
2023/10/23 01:28:50;;;;;;;6.63;0.80;;;12.20;99.90;;;;;;5017928;28;20029;-70
2023/10/23 01:31:16;;;;;;;1.95;0.52;;;12.30;99.90;;;;;;5017516;28;20553;-71
2023/10/23 01:33:42;;;;;;;2.00;0.70;;;12.30;99.90;;;;;;5016037;28;20402;-70
2023/10/23 01:36:09;;;;;;;2.17;0.70;;;12.30;99.90;;;;;;5018758;28;20026;-70
2023/10/23 01:38:35;;;;;;;0.95;0.65;;;12.30;99.90;;;;;;5017741;28;20808;-70
2023/10/23 01:41:01;;;;;;;1.63;0.77;;;12.40;99.90;;;;;;5018892;28;20107;-70
2023/10/23 01:43:27;;;;;;;1.23;0.85;;;12.40;99.90;;;;;;5017363;28;20124;-71
2023/10/23 01:45:53;;;;;;;1.17;0.90;;;12.40;99.90;;;;;;5018236;28;20057;-70
2023/10/23 01:48:19;;;;;;;0.95;0.57;;;12.50;99.90;;;;;;5015291;28;20045;-70
2023/10/23 01:50:44;;;;;;;2.42;0.65;;;12.50;99.90;;;;;;5031593;28;20076;-70
2023/10/23 01:53:10;;;;;;;1.73;0.60;;;12.50;99.90;;;;;;5017367;28;20107;-70
2023/10/23 01:55:36;;;;;;;2.03;0.80;;;12.50;99.90;;;;;;5023078;28;20029;-71
2023/10/23 01:58:02;;;;;;;2.78;0.65;;;12.50;99.90;;;;;;5013663;28;20054;-71
2023/10/23 02:00:27;;;;;;;1.17;0.63;;;12.50;99.90;;;;;;5021170;28;20535;-70
2023/10/23 02:02:54;;;;;;;1.77;0.47;;;12.50;99.90;;;;;;5015425;28;20040;-70
2023/10/23 02:05:20;;;;;;;1.13;0.80;;;12.50;99.90;;;;;;5020120;28;20489;-70
2023/10/23 02:07:45;;;;;;;1.33;0.80;;;12.40;99.90;;;;;;5015015;28;20033;-70
2023/10/23 02:10:11;;;;;;;2.42;0.65;;;12.40;99.90;;;;;;5018830;28;20534;-70
2023/10/23 02:12:37;;;;;;;6.22;1.08;;;12.40;99.90;;;;;;5031640;28;20477;-71
2023/10/23 02:15:04;;;;;;;2.40;0.77;;;12.30;99.90;;;;;;5021793;28;20049;-71
2023/10/23 02:17:30;;;;;;;0.77;0.70;;;12.30;99.90;;;;;;5019395;28;20037;-70
2023/10/23 02:19:56;;;;;;;2.85;1.00;;;12.20;99.90;;;;;;5035784;28;20063;-70
2023/10/23 02:22:22;;;;;;;1.98;1.13;;;12.20;99.90;;;;;;5017396;28;20494;-70
2023/10/23 02:24:48;;;;;;;1.30;0.85;;;12.10;99.90;;;;;;5018282;28;20034;-70
2023/10/23 02:27:14;;;;;;;1.60;1.10;;;12.10;99.90;;;;;;5016229;28;20042;-71
2023/10/23 02:29:40;;;;;;;2.00;0.80;;;12.10;99.90;;;;;;5023042;28;20052;-70
2023/10/23 02:32:07;;;;;;;1.27;0.60;;;12.10;99.90;;;;;;5019563;28;20091;-70
2023/10/23 02:34:35;;;;;;;1.00;0.90;;;12.10;99.90;;;;;;5038348;28;20064;-70
2023/10/23 02:37:02;;;;;;;2.28;1.10;;;12.10;99.90;;;;;;5019604;28;20066;-70
2023/10/23 02:39:28;;;;;;;2.65;1.10;;;12.00;99.90;;;;;;5021793;28;20029;-70
2023/10/23 02:41:53;;;;;;;1.30;0.90;;;12.00;99.90;;;;;;5020589;28;20580;-71
2023/10/23 02:44:19;;;;;;;1.83;1.00;;;12.00;99.90;;;;;;5021046;28;20030;-70
2023/10/23 02:46:45;;;;;;;2.67;1.13;;;12.00;99.90;;;;;;5035234;28;20385;-70
2023/10/23 02:49:11;;;;;;;0.90;0.70;;;12.00;99.90;;;;;;5018990;28;20069;-70
2023/10/23 02:51:38;;;;;;;1.60;0.90;;;11.90;99.90;;;;;;5023175;28;20470;-71
2023/10/23 02:54:04;;;;;;;1.95;1.00;;;11.90;99.90;;;;;;5018688;28;20603;-71
2023/10/23 02:56:31;;;;;;;2.05;1.30;;;11.90;99.90;;;;;;5024160;28;20440;-70
2023/10/23 02:58:57;;;;;;;2.65;0.95;;;11.80;99.90;;;;;;5017652;28;20049;-70
2023/10/23 03:01:23;;;;;;;1.58;1.02;;;11.80;99.90;;;;;;5022879;28;20042;-70
2023/10/23 03:03:50;;;;;;;1.48;1.00;;;11.80;99.90;;;;;;5016919;28;20125;-70
2023/10/23 03:06:16;;;;;;;1.10;0.80;;;11.80;99.90;;;;;;5021921;28;20603;-71
2023/10/23 03:08:43;;;;;;;0.93;0.90;;;11.70;99.90;;;;;;5018561;28;20033;-70
2023/10/23 03:11:09;;;;;;;0.82;0.70;;;11.70;99.90;;;;;;5022666;28;20053;-70
2023/10/23 03:13:35;;;;;;;3.58;1.10;;;11.70;99.90;;;;;;5017668;28;20689;-70
2023/10/23 03:16:02;;;;;;;1.85;0.80;;;11.70;99.90;;;;;;5019837;28;20122;-70
2023/10/23 03:18:29;;;;;;;3.08;1.08;;;11.70;99.90;;;;;;5019532;28;20117;-70
2023/10/23 03:20:59;;;;;;;1.58;0.80;;;11.70;99.90;;;;;;5036212;28;20025;-69
2023/10/23 03:23:28;;;;;;;1.17;0.70;;;11.60;99.90;;;;;;5023822;28;20025;-70
2023/10/23 03:25:53;;;;;;;1.23;0.90;;;11.60;99.90;;;;;;5019720;28;20033;-70
2023/10/23 03:28:19;;;;;;;1.48;0.82;;;11.60;99.90;;;;;;5020082;28;20030;-70
2023/10/23 03:30:45;;;;;;;1.75;0.80;;;11.50;99.90;;;;;;5022390;28;20096;-70
2023/10/23 03:33:11;;;;;;;1.48;0.70;;;11.50;99.90;;;;;;5019165;28;20045;-70
2023/10/23 03:35:42;;;;;;;2.88;0.90;;;11.40;99.90;;;;;;5020862;28;20129;-70
2023/10/23 03:38:07;;;;;;;5.15;0.80;;;11.40;99.90;;;;;;5034394;28;20057;-70
2023/10/23 03:40:33;;;;;;;4.88;1.15;;;11.40;99.90;;;;;;5021008;28;20128;-70
2023/10/23 03:42:59;;;;;;;0.70;0.57;;;11.30;99.90;;;;;;5019524;28;20536;-70
2023/10/23 03:45:24;;;;;;;1.10;0.68;;;11.20;99.90;;;;;;5022029;28;20517;-69
2023/10/23 03:47:50;;;;;;;0.80;0.80;;;11.20;99.90;;;;;;5021105;28;20568;-70
2023/10/23 03:50:16;;;;;;;2.88;0.70;;;11.20;99.90;;;;;;5019505;28;20453;-70
2023/10/23 03:52:42;;;;;;;0.95;0.73;;;11.10;99.90;;;;;;5022184;28;20120;-70
2023/10/23 03:55:08;;;;;;;1.13;0.70;;;11.10;99.90;;;;;;5019859;28;20044;-70
2023/10/23 03:57:33;;;;;;;0.95;0.75;;;11.00;99.90;;;;;;5023128;28;20029;-70
2023/10/23 03:59:59;;;;;;;2.55;0.75;;;11.00;99.90;;;;;;5019253;28;20595;-70
2023/10/23 04:02:25;;;;;;;1.50;0.90;;;10.90;99.90;;;;;;5023047;28;20109;-70
2023/10/23 04:04:50;;;;;;;1.02;0.82;;;10.90;99.90;;;;;;5022600;28;20848;-70
2023/10/23 04:07:16;;;;;;;1.50;1.05;;;10.80;99.90;;;;;;5021960;28;20478;-70
2023/10/23 04:09:42;;;;;;;0.82;0.75;;;10.80;99.90;;;;;;5017891;28;20025;-70
2023/10/23 04:12:08;;;;;;;0.70;0.70;;;10.70;99.90;;;;;;5019480;28;20413;-70
2023/10/23 04:14:33;;;;;;;2.60;0.80;;;10.70;99.90;;;;;;5016756;28;20048;-70
2023/10/23 04:16:59;;;;;;;1.50;0.90;;;10.70;99.90;;;;;;5018374;28;20124;-70
2023/10/23 04:19:25;;;;;;;0.98;0.90;;;10.70;99.90;;;;;;5016456;28;20026;-70
2023/10/23 04:21:50;;;;;;;1.17;1.08;;;10.70;99.90;;;;;;5018900;28;20037;-70
2023/10/23 04:24:16;;;;;;;3.00;1.00;;;10.60;99.90;;;;;;5017071;28;20037;-70
2023/10/23 04:26:42;;;;;;;1.20;1.10;;;10.60;99.90;;;;;;5019947;28;20033;-70
2023/10/23 04:29:08;;;;;;;3.38;1.02;;;10.60;99.90;;;;;;5016989;28;20092;-70
2023/10/23 04:31:34;;;;;;;2.65;1.33;;;10.60;99.90;;;;;;5019895;28;20029;-70
2023/10/23 04:34:00;;;;;;;2.47;1.10;;;10.50;99.90;;;;;;5016613;28;20032;-70
2023/10/23 04:36:26;;;;;;;1.40;1.00;;;10.50;99.90;;;;;;5018925;28;20442;-70
2023/10/23 04:38:51;;;;;;;1.92;1.10;;;10.50;99.90;;;;;;5017778;28;20144;-70
2023/10/23 04:41:19;;;;;;;1.40;1.30;;;10.50;99.90;;;;;;5019039;28;20018;-70
2023/10/23 04:43:45;;;;;;;1.10;1.00;;;10.50;99.90;;;;;;5017309;28;20092;-70
2023/10/23 04:46:10;;;;;;;1.83;1.35;;;10.50;99.90;;;;;;5021429;28;20041;-70
2023/10/23 04:48:36;;;;;;;1.98;1.08;;;10.50;99.90;;;;;;5023017;28;20036;-70
2023/10/23 04:51:05;;;;;;;4.00;1.55;;;10.50;99.90;;;;;;5016690;28;20029;-70
2023/10/23 04:53:31;;;;;;;1.55;1.40;;;10.50;99.90;;;;;;5020115;28;20183;-70
2023/10/23 04:55:58;;;;;;;2.33;1.35;;;10.50;99.90;;;;;;5017132;28;20124;-70
2023/10/23 04:58:23;;;;;;;1.40;1.30;;;10.50;99.90;;;;;;5018692;28;20044;-70
2023/10/23 05:00:49;;;;;;;1.30;1.20;;;10.50;99.90;;;;;;5017825;28;20025;-70
2023/10/23 05:03:16;;;;;;;1.73;1.58;;;10.40;99.90;;;;;;5019153;28;20042;-70
2023/10/23 05:05:48;;;;;;;1.58;1.40;;;10.50;99.90;;;;;;5017650;28;20060;-70
2023/10/23 05:08:14;;;;;;;3.53;1.83;;;10.50;99.90;;;;;;5019374;28;20038;-70
2023/10/23 05:10:39;;;;;;;3.17;1.73;;;10.50;99.90;;;;;;5017772;28;20033;-70
2023/10/23 05:13:05;;;;;;;2.22;1.40;;;10.50;99.90;;;;;;5020022;28;20041;-70
2023/10/23 05:15:31;;;;;;;1.98;1.77;;;10.50;99.90;;;;;;5017415;28;20033;-69
2023/10/23 05:17:57;;;;;;;1.77;1.30;;;10.50;99.90;;;;;;5020294;28;20041;-69
2023/10/23 05:20:22;;;;;;;1.35;1.25;;;10.60;99.90;;;;;;5015547;28;20592;-69
2023/10/23 05:22:48;;;;;;;2.67;1.60;;;10.60;99.90;;;;;;5017542;28;20067;-69
2023/10/23 05:25:14;;;;;;;1.63;1.50;;;10.60;99.90;;;;;;5015693;28;20833;-70
2023/10/23 05:27:40;;;;;;;2.13;1.30;;;10.60;99.90;;;;;;5021856;28;20152;-71
2023/10/23 05:30:06;;;;;;;5.18;1.77;;;10.60;99.90;;;;;;5014900;28;20128;-70
2023/10/23 05:32:34;;;;;;;2.92;1.60;;;10.60;99.90;;;;;;5021953;28;20041;-70
2023/10/23 05:35:04;;;;;;;2.45;1.27;;;10.60;99.90;;;;;;5014819;28;20069;-70
2023/10/23 05:37:32;;;;;;;1.75;1.17;;;10.70;99.90;;;;;;5019405;28;20037;-70
2023/10/23 05:39:58;;;;;;;2.47;1.65;;;10.70;99.90;;;;;;5015079;28;20080;-70
2023/10/23 05:42:24;;;;;;;4.53;1.75;;;10.80;99.90;;;;;;5019591;28;20136;-70
2023/10/23 05:44:51;;;;;;;2.47;1.95;;;10.80;99.90;;;;;;5018393;28;20113;-70
2023/10/23 05:47:16;;;;;;;2.92;2.00;;;10.80;99.90;;;;;;5020768;28;20508;-70
2023/10/23 05:49:42;;;;;;;3.03;2.10;;;10.80;99.90;;;;;;5016307;28;20033;-70
2023/10/23 05:52:08;;;;;;;3.47;2.40;;;10.80;99.90;;;;;;5017870;28;20128;-69
2023/10/23 05:54:34;;;;;;;2.15;1.88;;;10.90;99.90;;;;;;5018354;28;20083;-70
2023/10/23 05:57:00;;;;;;;2.30;2.03;;;10.80;99.90;;;;;;5015849;28;20066;-71
2023/10/23 05:59:25;;;;;;;4.15;2.83;;;10.80;99.90;;;;;;5018441;28;20120;-70
2023/10/23 06:01:52;;;;;;;3.28;2.80;;;10.80;99.90;;;;;;5016694;28;20025;-70
2023/10/23 06:04:17;;;;;;;4.22;2.40;;;10.80;99.90;;;;;;5019964;28;20038;-70
2023/10/23 06:06:43;;;;;;;2.75;2.13;;;10.80;99.90;;;;;;5018938;28;20028;-70
2023/10/23 06:09:09;;;;;;;2.67;2.03;;;10.80;99.90;;;;;;5021449;28;20124;-70
2023/10/23 06:11:35;;;;;;;3.83;2.20;;;10.80;99.90;;;;;;5035677;28;20036;-70
2023/10/23 06:14:01;;;;;;;5.25;2.05;;;10.90;99.90;;;;;;5020917;28;20041;-70
2023/10/23 06:16:26;;;;;;;2.58;1.80;;;10.90;99.90;;;;;;5018889;28;20037;-70
2023/10/23 06:18:52;;;;;;;4.78;1.90;;;10.90;99.90;;;;;;5023082;28;20037;-70
2023/10/23 06:21:18;;;;;;;4.53;2.20;;;10.90;99.90;;;;;;5019317;28;20042;-70
2023/10/23 06:23:44;;;;;;;4.00;2.10;;;10.90;99.90;;;;;;5023941;28;20033;-70
2023/10/23 06:26:09;;;;;;;3.65;2.15;;;10.90;99.90;;;;;;5018122;28;20033;-70
2023/10/23 06:28:36;;;;;;;6.53;2.42;;;10.90;99.90;;;;;;5024608;28;20060;-70
2023/10/23 06:31:06;;;;;;;4.05;2.08;;;10.90;99.90;;;;;;5017645;28;20030;-70
2023/10/23 06:33:32;;;;;;;10.20;3.13;;;11.00;99.90;;;;;;5022469;28;20033;-70
2023/10/23 06:35:59;;;;;;;6.40;2.50;;;11.00;99.90;;;;;;5017568;28;20042;-70
2023/10/23 06:38:25;;;;;;;6.22;2.45;;;11.00;99.90;;;;;;5020726;28;20044;-70
2023/10/23 06:40:51;;;;;;;11.50;2.78;;;11.10;99.90;;;;;;5019204;28;20138;-70
2023/10/23 06:43:16;;;;;;;11.77;3.25;;;11.20;99.90;;;;;;5035423;28;20430;-70
2023/10/23 06:45:43;;;;;;;10.57;3.25;;;11.30;99.90;;;;;;5022250;28;20107;-70
2023/10/23 06:48:09;;;;;;;15.13;3.47;;;11.30;99.90;;;;;;5022279;28;20068;-70
2023/10/23 06:50:34;;;;;;;13.68;2.85;;;11.40;99.90;;;;;;5021558;28;20056;-70
2023/10/23 06:53:00;;;;;;;12.63;3.63;;;11.40;99.90;;;;;;5020721;28;20148;-70
2023/10/23 06:55:27;;;;;;;17.50;4.35;;;11.50;99.90;;;;;;5021200;28;20121;-70
2023/10/23 06:57:54;;;;;;;10.45;2.95;;;11.50;99.90;;;;;;5021970;28;20218;-70
2023/10/23 07:00:20;;;;;;;15.55;3.17;;;11.50;99.90;;;;;;5020956;28;20513;-70
2023/10/23 07:02:50;;;;;;;5.65;2.53;;;11.60;99.90;;;;;;5021354;28;20057;-71
2023/10/23 07:05:16;;;;;;;6.90;2.95;;;11.60;99.90;;;;;;5019854;28;20049;-70
2023/10/23 07:07:42;;;;;;;6.60;2.78;;;11.70;99.90;;;;;;5022115;28;20029;-70
2023/10/23 07:10:08;;;;;;;4.47;2.53;;;11.80;99.90;;;;;;5019774;28;20034;-70
2023/10/23 07:12:33;;;;;;;6.72;2.70;;;11.90;99.90;;;;;;5018718;28;20042;-70
2023/10/23 07:15:01;;;;;;;5.65;2.90;;;11.90;99.90;;;;;;5019717;28;20052;-70
2023/10/23 07:17:27;;;;;;;6.32;2.40;;;12.00;99.90;;;;;;5018916;28;20037;-70
2023/10/23 07:19:53;;;;;;;2.47;2.00;;;12.10;99.90;;;;;;5021385;28;20035;-70
2023/10/23 07:22:20;;;;;;;4.13;2.35;;;12.20;99.90;;;;;;5018225;28;20026;-70
2023/10/23 07:24:46;;;;;;;2.70;2.00;;;12.30;99.90;;;;;;5020455;28;20140;-69
2023/10/23 07:27:15;;;;;;;5.43;2.42;;;12.40;99.90;;;;;;5015410;28;20109;-70
2023/10/23 07:29:42;;;;;;;9.15;3.08;;;12.50;99.90;;;;;;5018686;28;20022;-70
2023/10/23 07:32:08;;;;;;;10.68;4.38;;;12.60;99.90;;;;;;5016530;28;20159;-70
2023/10/23 07:34:34;;;;;;;11.82;4.75;;;12.70;99.90;;;;;;5022665;28;20124;-70
2023/10/23 07:36:59;;;;;;;8.63;3.67;;;12.80;99.90;;;;;;5015910;28;20042;-70
2023/10/23 07:39:25;;;;;;;8.68;4.63;;;12.90;99.90;;;;;;5022525;28;20033;-70
2023/10/23 07:41:51;;;;;;;10.52;5.03;;;12.90;99.90;;;;;;5016769;28;20036;-69
2023/10/23 07:44:17;;;;;;;8.98;4.38;;;13.00;99.90;;;;;;5022151;28;20490;-70
2023/10/23 07:46:44;;;;;;;7.32;4.10;;;13.10;99.90;;;;;;5021295;28;20060;-70
2023/10/23 07:49:10;;;;;;;7.50;3.67;;;13.10;99.90;;;;;;5021169;28;20273;-70
2023/10/23 07:51:35;;;;;;;5.45;3.53;;;13.10;99.90;;;;;;5019478;28;20037;-70
2023/10/23 07:54:02;;;;;;;6.00;3.45;;;13.20;99.90;;;;;;5019742;28;20037;-69
2023/10/23 07:56:28;;;;;;;4.85;3.17;;;13.20;99.90;;;;;;5018231;28;20025;-70
2023/10/23 07:58:54;;;;;;;4.07;2.60;;;13.30;99.90;;;;;;5021117;28;20033;-70
2023/10/23 08:01:20;;;;;;;4.68;3.40;;;13.40;99.90;;;;;;5018734;28;20076;-70
2023/10/23 08:03:46;;;;;;;6.13;3.08;;;13.40;99.90;;;;;;5020784;28;20154;-70
2023/10/23 08:06:12;;;;;;;5.07;3.15;;;13.50;99.90;;;;;;5018244;28;20045;-70
2023/10/23 08:08:39;;;;;;;3.78;2.55;;;13.50;99.90;;;;;;5020422;28;20028;-69
2023/10/23 08:11:10;;;;;;;4.60;3.30;;;13.60;99.90;;;;;;5018012;28;20026;-70
2023/10/23 08:13:36;;;;;;;8.82;3.22;;;13.60;99.90;;;;;;5020996;28;20041;-70
2023/10/23 08:16:06;;;;;;;4.13;3.38;;;13.70;99.90;;;;;;5018473;28;20107;-70
2023/10/23 08:18:34;;;;;;;3.85;2.63;;;13.80;99.90;;;;;;5020674;28;20034;-70
2023/10/23 08:21:00;;;;;;;4.72;2.95;;;13.80;99.90;;;;;;5018213;28;20066;-70
2023/10/23 08:23:26;;;;;;;6.72;3.45;;;13.90;99.90;;;;;;5019776;28;20616;-70
2023/10/23 08:25:51;;;;;;;4.25;2.60;;;14.00;99.90;;;;;;5019533;28;20036;-70
2023/10/23 08:28:17;;;;;;;5.93;3.08;;;14.00;99.90;;;;;;5019441;28;20445;-70
2023/10/23 08:30:43;;;;;;;5.30;3.10;;;14.10;99.90;;;;;;5020879;28;20037;-71
2023/10/23 08:33:09;;;;;;;4.05;2.75;;;14.10;99.90;;;;;;5017495;28;20116;-70
2023/10/23 08:35:35;;;;;;;4.35;2.67;;;14.20;99.90;;;;;;5021097;28;20120;-70
2023/10/23 08:38:00;;;;;;;4.75;2.45;;;14.20;99.90;;;;;;5017533;28;20036;-70
2023/10/23 08:40:26;;;;;;;4.00;2.78;;;14.20;99.90;;;;;;5020753;28;20493;-70
2023/10/23 08:42:52;;;;;;;4.90;2.70;;;14.30;99.90;;;;;;5018020;28;20910;-70
2023/10/23 08:45:18;;;;;;;4.57;3.20;;;14.40;99.90;;;;;;5020219;28;20101;-70
2023/10/23 08:47:44;;;;;;;4.82;2.90;;;14.40;99.90;;;;;;5018293;28;20491;-70
2023/10/23 08:50:10;;;;;;;5.25;3.28;;;14.50;99.90;;;;;;5020046;28;20040;-70
2023/10/23 08:53:02;;;;;;;4.68;2.80;;;14.60;99.90;;;;;;5011172;28;20069;-69
2023/10/23 08:55:32;;;;;;;5.00;2.92;;;14.70;99.90;;;;;;5020172;28;20042;-70
2023/10/23 08:57:59;;;;;;;5.13;3.35;;;14.80;99.90;;;;;;5014016;28;20490;-70
2023/10/23 09:00:25;;;;;;;7.20;3.45;;;14.90;99.90;;;;;;5019272;28;20048;-70
2023/10/23 09:02:51;;;;;;;3.92;2.60;;;15.10;99.90;;;;;;5014730;28;20557;-70
2023/10/23 09:05:17;;;;;;;7.53;3.05;;;15.20;99.90;;;;;;5019268;28;20040;-70
2023/10/23 09:07:44;;;;;;;8.85;4.90;;;15.30;99.90;;;;;;5015885;28;20053;-70
2023/10/23 09:10:10;;;;;;;5.55;3.53;;;15.40;99.90;;;;;;5018636;28;20506;-69
2023/10/23 09:12:37;;;;;;;6.07;2.97;;;15.50;99.90;;;;;;5016957;28;20068;-70
2023/10/23 09:15:17;;;;;;;4.93;3.05;;;15.60;99.90;;;;;;5019589;28;20045;-70
2023/10/23 09:17:44;;;;;;;3.72;2.65;;;15.70;99.90;;;;;;5014070;28;20060;-70
2023/10/23 09:20:16;;;;;;;3.53;3.05;;;15.90;99.90;;;;;;5010378;28;20112;-68
2023/10/23 09:22:47;;;;;;;4.10;3.50;;;16.10;99.90;;;;;;5015881;28;20826;-70
2023/10/23 09:25:19;;;;;;;3.97;2.78;;;16.30;99.90;;;;;;5020006;28;20030;-71
2023/10/23 09:27:45;;;;;;;4.85;2.47;;;16.40;99.90;;;;;;5016448;28;20033;-70
2023/10/23 09:30:13;;;;;;;3.13;2.47;;;16.40;99.90;;;;;;5019141;28;20030;-70
2023/10/23 09:32:40;;;;;;;4.32;2.78;;;16.30;99.90;;;;;;5018282;28;20025;-68
2023/10/23 09:35:07;;;;;;;4.47;2.90;;;16.20;99.90;;;;;;5029671;28;20059;-69
2023/10/23 09:37:36;;;;;;;7.88;3.60;;;16.20;99.90;;;;;;5018340;28;20048;-69
2023/10/23 09:40:16;;;;;;;4.95;3.30;;;16.30;99.90;;;;;;5018565;28;20442;-67
2023/10/23 09:42:42;;;;;;;5.95;2.80;;;16.20;99.90;;;;;;5017093;28;20049;-70
2023/10/23 09:45:09;;;;;;;4.88;3.78;;;16.30;99.90;;;;;;5018740;28;20494;-70
2023/10/23 09:47:35;;;;;;;4.40;3.40;;;16.30;99.90;;;;;;5021894;28;20127;-71
2023/10/23 09:50:03;;;;;;;3.85;2.50;;;16.30;99.90;;;;;;5018693;28;20068;-70
2023/10/23 09:52:34;;;;;;;3.33;2.70;;;16.40;99.90;;;;;;5018406;28;20057;-73
2023/10/23 09:55:07;;;;;;;8.77;3.40;;;16.50;99.90;;;;;;5018445;28;20026;-68
2023/10/23 09:57:37;;;;;;;7.55;3.22;;;16.50;99.90;;;;;;5017558;28;20048;-66
2023/10/23 10:00:13;;;;;;;5.30;2.70;;;16.60;99.90;;;;;;5018179;28;20513;-69
2023/10/23 10:02:56;;;;;;;5.13;3.10;;;16.60;99.90;;;;;;5017529;28;20036;-69
2023/10/23 10:05:30;;;;;;;5.30;3.55;;;16.70;99.90;;;;;;5022242;28;20113;-68
2023/10/23 10:08:13;;;;;;;3.65;3.15;;;16.70;99.90;;;;;;5016067;28;20026;-69
2023/10/23 10:10:39;;;;;;;5.13;4.03;;;16.70;99.90;;;;;;5019677;28;20814;-69
2023/10/23 10:13:06;;;;;;;4.90;3.60;;;16.70;99.90;;;;;;5015225;28;20045;-68
2023/10/23 10:15:32;;;;;;;5.55;3.20;;;16.80;99.90;;;;;;5021634;28;20563;-69
2023/10/23 10:17:58;;;;;;;9.60;4.30;;;16.80;99.90;;;;;;5015934;28;20495;-69
2023/10/23 10:20:25;;;;;;;5.82;3.60;;;16.90;99.90;;;;;;5018363;28;20026;-63
2023/10/23 10:23:12;;;;;;;7.50;3.33;;;17.00;99.90;;;;;;5016724;28;20065;-63
2023/10/23 10:25:39;;;;;;;6.65;3.53;;;17.10;99.90;;;;;;5016295;28;20036;-63
2023/10/23 10:28:09;;;;;;;4.90;2.83;;;17.30;99.90;;;;;;5015614;28;20919;-63
2023/10/23 10:30:49;;;;;;;5.35;3.83;;;17.40;99.90;;;;;;5018441;28;20033;-63
2023/10/23 10:33:21;;;;;;;7.22;3.95;;;17.60;99.90;;;;;;5015812;28;20391;-62
2023/10/23 10:35:52;;;;;;;5.07;3.67;;;17.80;99.00;;;;;;5019010;28;20559;-63
2023/10/23 10:38:22;;;;;;;4.57;3.25;;;18.00;98.70;;;;;;5014810;28;20391;-63
2023/10/23 10:41:03;;;;;;;6.03;3.92;;;18.20;98.60;;;;;;5018815;28;20033;-62
2023/10/23 10:43:34;;;;;;;8.13;3.50;;;19.60;97.00;;;;;;5017378;28;20034;-63
2023/10/23 10:46:04;;;;;;;3.75;3.08;;;21.20;93.30;;;;;;5017965;28;20044;-63
2023/10/23 10:48:47;;;;;;;4.70;3.60;;;22.40;91.10;;;;;;5017770;28;20618;-63
2023/10/23 10:51:24;;;;;;;4.38;3.47;;;24.30;84.50;;;;;;5022198;28;20030;-63
2023/10/23 10:53:56;;;;;;;6.45;3.72;;;24.50;80.80;;;;;;5022010;28;20044;-63
2023/10/23 10:56:22;;;;;;;4.32;3.15;;;24.60;79.10;;;;;;5024054;28;20037;-64
2023/10/23 10:58:48;;;;;;;6.07;3.78;;;24.40;78.60;;;;;;5019372;28;20034;-63
2023/10/23 11:01:14;;;;;;;4.53;2.38;;;23.20;81.60;;;;;;5022409;28;20046;-64
2023/10/23 11:03:41;;;;;;;5.32;2.90;;;22.10;85.40;;;;;;5023032;28;20034;-64
2023/10/23 11:06:07;;;;;;;3.55;2.70;;;21.40;88.50;;;;;;5023731;28;20037;-63
2023/10/23 11:08:34;;;;;;;5.85;2.80;;;20.70;90.60;;;;;;5021627;28;20029;-64
2023/10/23 11:11:06;;;;;;;8.25;3.50;;;20.20;91.90;;;;;;5021457;28;20086;-63
2023/10/23 11:13:34;;;;;;;6.05;3.15;;;19.80;92.30;;;;;;5019231;28;20180;-64
2023/10/23 11:16:01;;;;;;;3.35;2.70;;;19.60;93.10;;;;;;5019406;28;20041;-64
2023/10/23 11:18:29;;;;;;;3.08;2.20;;;19.40;93.10;;;;;;5021476;28;20568;-63
2023/10/23 11:21:00;;;;;;;3.47;2.53;;;19.20;93.60;;;;;;5021166;28;20084;-63
2023/10/23 11:23:29;;;;;;;5.07;3.00;;;19.00;93.50;;;;;;5020970;28;20033;-63
2023/10/23 11:25:55;;;;;;;3.20;2.60;;;18.90;94.10;;;;;;5021811;28;20030;-64
2023/10/23 11:28:21;;;;;;;3.33;2.90;;;18.60;94.30;;;;;;5020003;28;20462;-63
2023/10/23 11:30:52;;;;;;;4.93;3.35;;;18.50;95.00;;;;;;5021299;28;20035;-64
2023/10/23 11:33:19;;;;;;;4.07;3.13;;;18.50;95.70;;;;;;5018296;28;20033;-64
2023/10/23 11:35:45;;;;;;;6.28;2.70;;;18.50;95.60;;;;;;5021433;28;20029;-63
2023/10/23 11:38:15;;;;;;;25.15;20.27;;;18.50;96.00;;;;;;5019760;28;20058;-64
2023/10/23 11:40:42;;;;;;;10.07;9.07;;;18.50;95.90;;;;;;5021963;28;20855;-64
2023/10/23 11:43:10;;;;;;;5.85;5.35;;;18.60;95.50;;;;;;5019155;28;20076;-64
2023/10/23 11:45:37;;;;;;;7.53;5.53;;;18.50;95.40;;;;;;5022000;28;20580;-64
2023/10/23 11:48:03;;;;;;;4.00;3.30;;;18.50;95.30;;;;;;5020012;28;20036;-63
2023/10/23 11:50:31;;;;;;;8.43;6.18;;;18.40;95.00;;;;;;5021717;28;20056;-64
2023/10/23 11:52:57;;;;;;;6.40;5.75;;;18.30;95.20;;;;;;5020730;28;20493;-64
2023/10/23 11:55:25;;;;;;;7.97;4.80;;;18.10;95.60;;;;;;5018151;28;20041;-64
2023/10/23 11:57:51;;;;;;;14.77;7.40;;;18.10;96.10;;;;;;5021650;28;20026;-64
2023/10/23 12:00:20;;;;;;;7.70;5.18;;;18.10;96.30;;;;;;5017808;28;20407;-64
2023/10/23 12:02:47;;;;;;;7.85;5.32;;;18.20;96.10;;;;;;5023855;28;20591;-64
2023/10/23 12:05:20;;;;;;;6.13;3.65;;;18.20;95.90;;;;;;5016379;28;20096;-63
2023/10/23 12:07:52;;;;;;;6.55;3.00;;;18.20;95.80;;;;;;5022442;28;20037;-64
2023/10/23 12:10:19;;;;;;;6.03;4.38;;;18.20;95.00;;;;;;5016832;28;20066;-64
2023/10/23 12:12:46;;;;;;;3.08;2.78;;;18.20;94.80;;;;;;5021903;28;20041;-63
2023/10/23 12:15:15;;;;;;;4.03;2.60;;;18.20;95.10;;;;;;5012580;28;20433;-63
2023/10/23 12:17:42;;;;;;;11.93;7.25;;;18.10;95.30;;;;;;5022286;28;20033;-64
2023/10/23 12:20:11;;;;;;;6.93;4.40;;;18.10;95.30;;;;;;5015596;28;20103;-63
2023/10/23 12:22:39;;;;;;;7.40;3.75;;;18.10;95.20;;;;;;5022503;28;20037;-63
2023/10/23 12:25:05;;;;;;;5.05;3.20;;;18.00;95.20;;;;;;5015876;28;20144;-63
2023/10/23 12:27:33;;;;;;;3.47;2.33;;;17.80;95.50;;;;;;5022376;28;20049;-63
2023/10/23 12:30:00;;;;;;;2.90;2.60;;;17.70;95.70;;;;;;5016546;28;20048;-63
2023/10/23 12:32:26;;;;;;;3.60;2.75;;;17.70;95.90;;;;;;5022571;28;20611;-63
2023/10/23 12:34:57;;;;;;;2.72;2.28;;;17.70;96.00;;;;;;5019594;28;20053;-63
2023/10/23 12:37:34;;;;;;;4.03;2.90;;;17.60;96.10;;;;;;5022149;28;20058;-63
2023/10/23 12:40:00;;;;;;;4.57;2.42;;;17.60;96.30;;;;;;5016512;28;20034;-63
2023/10/23 12:42:28;;;;;;;4.13;2.92;;;17.60;96.40;;;;;;5022370;28;20037;-63
2023/10/23 12:44:55;;;;;;;3.60;2.63;;;17.50;96.70;;;;;;5019653;28;20060;-63